Startpagina
METAR-TAF:

METAR-TAF

Vliegvelden :

Vliegbasis Ramstein

Ramstein, Duitsland

breedte: 49-26N, lengte: 007-36E, hoogte: 238 m

Actueel weer

Dit bericht is 50 minuten geleden gemaakt, om 17:57 UTC
Wind 5 kt uit het oostnoordoosten
Temperatuur 20°C
Vochtigheid 49%
Druk 1017 hPa
Zicht 10 km of meer
Onbewolkt

METAR: ETAR 231757Z AUTO 06005KT 9999 CLR 20/09 A3002 RMK AO2 SLP167 T01950085 10213 20191 57007 $

Tijdstip: 20:47 (18:47 UTC)

Verwachting

Dit bericht is 46 minuten geleden gemaakt, om 18:01 UTC
Verwachting geldig van 23 om 18 UTC tot 25 om 00 UTC
Wind 6 kt uit variabele richting
Zicht 10 km of meer
Weinig wolken op 6000 ft
Wijzigt naar
van 24 om 05 UTC tot 24 om 06 UTC
Wind 9 kt uit het noordnoordoosten
Zicht 10 km of meer
Verspreide wolken op 5000 ft
Gebroken wolken op 15000 ft

TAF: ETAR 231801Z 2318/2500 VRB06KT 9999 FEW060 QNH2997INS BECMG 2405/2406 03009KT 9999 SCT050 BKN150 QNH2991INS TX23/2415Z TN03/2404Z

Waarnemingen en weersverwachtingen van meer dan 4000 vliegvelden (METAR en TAF).

De beschikbare stations zijn de gele en rode punten op de kaart.

Ga met uw muis naar het station om de naam te zien.

Klik dan om waarnemingen en weersverwachtingen te zien.

kaart wijzigen: klik op de groene knoppen met een zwart kruis om in te zoomen, op de groene knop met een streepje om uit te zoomen of op de groene pijlen voor aangrenzende kaarten.


METAR-TAF: